Time;durP1;ratioP1;P1;durP2;ratioP2;P2;SDS_P1;SDS_P2;PMS_P1;PMS_P2;Temp;Humidity;BMP_temperature;BMP_pressure;BME280_temperature;BME280_humidity;BME280_pressure;Samples;Min_cycle;Max_cycle;Signal;HPM_P1;HPM_P2
2021/08/08 00:00:08;;;;;;;14.57;5.93;;;;;;;15.15;91.46;100161.94;5052586;28;20100;-62
2021/08/08 00:02:37;;;;;;;15.82;6.03;;;;;;;15.17;91.46;100160.00;5034455;28;20410;-61
2021/08/08 00:05:05;;;;;;;12.05;5.90;;;;;;;15.20;91.48;100162.44;5052473;28;20033;-62
2021/08/08 00:07:30;;;;;;;20.35;6.22;;;;;;;15.24;91.31;100166.59;5051515;28;20098;-62
2021/08/08 00:09:55;;;;;;;14.93;5.80;;;;;;;15.25;91.08;100159.44;5051854;28;20475;-62
2021/08/08 00:12:21;;;;;;;17.75;5.72;;;;;;;15.20;91.10;100165.09;5049600;28;20601;-59
2021/08/08 00:14:46;;;;;;;15.20;5.20;;;;;;;15.16;90.97;100168.13;5051216;28;20028;-70
2021/08/08 00:17:11;;;;;;;16.90;5.70;;;;;;;15.18;91.16;100171.50;5052143;28;20021;-60
2021/08/08 00:19:36;;;;;;;11.82;4.78;;;;;;;15.27;91.36;100177.97;5051260;28;20482;-69
2021/08/08 00:22:02;;;;;;;13.95;4.65;;;;;;;15.32;91.55;100182.00;5051769;28;20023;-63
2021/08/08 00:24:27;;;;;;;12.45;4.40;;;;;;;15.42;90.92;100179.47;5052051;28;20352;-62
2021/08/08 00:26:53;;;;;;;9.65;4.05;;;;;;;15.50;90.69;100184.22;5051864;28;20032;-63
2021/08/08 00:29:19;;;;;;;12.35;4.55;;;;;;;15.57;90.46;100181.00;5051580;28;20040;-62
2021/08/08 00:31:44;;;;;;;12.57;4.63;;;;;;;15.64;90.21;100183.19;5051694;28;20404;-62
2021/08/08 00:34:10;;;;;;;12.55;4.07;;;;;;;15.67;90.34;100182.97;5052036;28;20078;-68
2021/08/08 00:36:35;;;;;;;14.05;4.60;;;;;;;15.70;90.25;100175.56;5051733;28;20025;-70
2021/08/08 00:39:01;;;;;;;18.45;5.45;;;;;;;15.76;90.39;100174.25;5050766;28;20033;-61
2021/08/08 00:41:27;;;;;;;17.15;5.72;;;;;;;15.85;90.58;100178.88;5051377;28;20060;-62
2021/08/08 00:43:52;;;;;;;14.27;6.18;;;;;;;15.92;90.26;100181.97;5051233;28;20471;-62
2021/08/08 00:46:17;;;;;;;24.48;7.22;;;;;;;15.97;90.43;100182.44;5052790;28;20032;-62
2021/08/08 00:48:43;;;;;;;18.02;6.75;;;;;;;16.01;90.15;100177.69;5054757;28;20021;-61
2021/08/08 00:51:08;;;;;;;20.50;6.68;;;;;;;16.09;89.73;100187.78;5055239;28;20040;-61
2021/08/08 00:53:34;;;;;;;23.88;7.53;;;;;;;16.13;89.71;100192.75;5054711;28;20364;-61
2021/08/08 00:55:59;;;;;;;19.08;6.95;;;;;;;16.08;90.09;100196.78;5054670;28;20029;-61
2021/08/08 00:58:26;;;;;;;16.17;6.30;;;;;;;16.07;89.67;100195.91;5054675;28;20459;-66
2021/08/08 01:00:55;;;;;;;16.30;6.82;;;;;;;16.03;89.83;100197.13;5054023;28;20491;-64
2021/08/08 01:03:22;;;;;;;12.02;5.90;;;;;;;16.00;89.85;100200.06;5053689;28;20041;-60
2021/08/08 01:05:51;;;;;;;21.02;7.15;;;;;;;15.95;89.75;100188.88;5054786;28;20135;-61
2021/08/08 01:08:25;;;;;;;19.90;7.03;;;;;;;15.89;89.71;100206.22;5054472;28;20044;-63
2021/08/08 01:10:53;;;;;;;16.75;6.57;;;;;;;15.88;90.13;100205.38;5054270;28;20475;-70
2021/08/08 01:13:19;;;;;;;18.90;7.18;;;;;;;15.83;89.49;100182.66;5054548;28;20059;-61
2021/08/08 01:15:44;;;;;;;14.98;6.32;;;;;;;15.85;89.75;100213.59;5054513;28;20474;-61
2021/08/08 01:18:14;;;;;;;19.60;6.35;;;;;;;15.83;89.66;100223.56;5054818;28;20514;-64
2021/08/08 01:20:40;;;;;;;22.23;7.07;;;;;;;15.84;89.40;100221.72;5054215;28;20031;-61
2021/08/08 01:23:08;;;;;;;20.92;7.32;;;;;;;15.87;89.50;100224.19;5054043;28;20485;-61
2021/08/08 01:25:34;;;;;;;16.77;6.55;;;;;;;15.92;88.97;100214.00;5032815;28;20448;-62
2021/08/08 01:28:01;;;;;;;17.35;6.03;;;;;;;15.95;88.25;100229.78;5034573;28;20072;-61
2021/08/08 01:30:26;;;;;;;21.55;6.95;;;;;;;15.92;88.61;100235.34;5034572;28;20108;-61
2021/08/08 01:32:52;;;;;;;20.67;6.90;;;;;;;15.93;88.94;100238.88;5049220;28;20112;-62
2021/08/08 01:35:17;;;;;;;14.15;6.40;;;;;;;15.93;88.53;100233.53;5054139;28;20036;-62
2021/08/08 01:37:42;;;;;;;15.48;6.50;;;;;;;16.00;87.66;100248.13;5054712;28;20469;-62
2021/08/08 01:40:24;;;;;;;18.38;6.05;;;;;;;15.96;88.15;100247.50;5053852;28;20032;-62
2021/08/08 01:42:53;;;;;;;14.57;6.32;;;;;;;15.97;87.83;100256.34;5053431;28;20025;-61
2021/08/08 01:45:21;;;;;;;18.13;6.88;;;;;;;15.94;87.69;100257.44;5054103;28;20056;-61
2021/08/08 01:47:50;;;;;;;17.30;6.20;;;;;;;15.93;87.64;100260.22;5054525;28;20028;-62
2021/08/08 01:50:17;;;;;;;14.25;5.75;;;;;;;15.93;86.33;100257.56;5054275;28;20041;-70
2021/08/08 01:52:43;;;;;;;17.52;6.15;;;;;;;15.96;86.55;100265.31;5053959;28;20033;-60
2021/08/08 01:55:10;;;;;;;20.05;5.78;;;;;;;15.94;86.45;100275.28;5054583;28;20556;-61
2021/08/08 01:57:36;;;;;;;13.43;4.65;;;;;;;15.93;86.16;100271.75;5053665;28;20430;-62
2021/08/08 02:00:05;;;;;;;14.23;4.55;;;;;;;15.94;85.96;100275.28;5053684;28;20021;-60
2021/08/08 02:02:30;;;;;;;12.40;5.57;;;;;;;15.91;85.68;100273.72;5053739;28;20053;-62
2021/08/08 02:04:55;;;;;;;12.93;5.28;;;;;;;15.93;85.86;100276.25;5053183;28;20040;-62
2021/08/08 02:07:22;;;;;;;10.05;4.97;;;;;;;15.88;85.65;100284.59;5053565;28;20107;-65
2021/08/08 02:09:48;;;;;;;13.60;5.28;;;;;;;15.83;86.40;100284.97;5053166;28;20025;-62
2021/08/08 02:12:13;;;;;;;12.15;5.15;;;;;;;15.83;86.35;100292.09;5053643;28;20032;-62
2021/08/08 02:14:39;;;;;;;13.93;5.72;;;;;;;15.83;86.79;100284.97;5053004;28;20493;-61
2021/08/08 02:17:06;;;;;;;16.42;5.75;;;;;;;15.84;86.31;100302.69;5053369;28;20033;-62
2021/08/08 02:19:31;;;;;;;12.95;5.00;;;;;;;15.87;86.10;100298.94;5053674;28;20036;-69
2021/08/08 02:21:57;;;;;;;12.00;5.25;;;;;;;15.90;85.76;100306.72;5053166;28;20033;-62
2021/08/08 02:24:22;;;;;;;17.95;4.55;;;;;;;15.91;85.38;100310.22;5053328;28;20028;-63
2021/08/08 02:26:48;;;;;;;11.02;4.45;;;;;;;15.89;85.47;100310.34;5051465;28;20044;-61
2021/08/08 02:29:13;;;;;;;17.63;5.43;;;;;;;15.92;85.33;100314.59;5053174;28;20028;-66
2021/08/08 02:31:41;;;;;;;14.93;4.70;;;;;;;15.94;84.55;100316.19;5053182;28;20079;-62
2021/08/08 02:34:07;;;;;;;12.85;5.20;;;;;;;15.96;84.32;100318.72;5053330;28;20017;-65
2021/08/08 02:36:33;;;;;;;13.50;4.55;;;;;;;15.93;83.85;100327.81;5052958;28;20032;-65
2021/08/08 02:38:58;;;;;;;14.20;4.50;;;;;;;15.93;83.35;100329.66;5052978;28;20024;-71
2021/08/08 02:41:24;;;;;;;12.30;4.68;;;;;;;15.92;83.36;100318.13;5052742;28;20067;-63
2021/08/08 02:43:49;;;;;;;11.75;4.60;;;;;;;15.96;82.46;100324.94;5053036;28;20021;-62
2021/08/08 02:46:14;;;;;;;12.20;4.25;;;;;;;15.95;82.99;100338.41;5052097;28;20128;-62
2021/08/08 02:48:39;;;;;;;15.75;4.72;;;;;;;15.94;83.43;100342.88;5053266;28;20027;-63
2021/08/08 02:51:05;;;;;;;16.45;5.10;;;;;;;15.87;83.93;100345.16;5052836;28;20031;-62
2021/08/08 02:53:30;;;;;;;12.18;5.15;;;;;;;15.75;84.98;100347.88;5052904;28;20471;-65
2021/08/08 02:55:55;;;;;;;19.02;5.78;;;;;;;15.58;85.97;100347.31;5052571;28;20029;-61
2021/08/08 02:58:21;;;;;;;18.42;5.70;;;;;;;15.45;86.84;100350.03;5051904;28;20052;-61
2021/08/08 03:00:46;;;;;;;11.82;4.90;;;;;;;15.44;87.18;100347.47;5052388;28;20029;-61
2021/08/08 03:03:12;;;;;;;13.13;5.53;;;;;;;15.38;86.92;100354.97;5052665;28;20049;-61
2021/08/08 03:05:38;;;;;;;14.63;5.50;;;;;;;15.31;87.77;100355.53;5052635;28;20029;-61
2021/08/08 03:08:03;;;;;;;11.93;5.05;;;;;;;15.26;87.81;100355.00;5051982;28;20017;-62
2021/08/08 03:10:29;;;;;;;18.20;5.75;;;;;;;15.20;87.72;100365.13;5052075;28;20383;-61
2021/08/08 03:12:54;;;;;;;13.95;5.60;;;;;;;15.14;87.75;100364.72;5052129;28;20369;-70
2021/08/08 03:15:19;;;;;;;14.43;4.88;;;;;;;15.08;88.00;100366.88;5052699;28;20021;-70
2021/08/08 03:17:45;;;;;;;13.77;5.22;;;;;;;15.05;87.55;100372.44;5051885;28;20115;-61
2021/08/08 03:20:10;;;;;;;13.88;5.30;;;;;;;15.02;87.57;100369.13;5052762;28;20045;-66
2021/08/08 03:22:35;;;;;;;12.98;4.60;;;;;;;15.00;87.23;100377.25;5052574;28;20041;-64
2021/08/08 03:25:01;;;;;;;13.00;5.22;;;;;;;14.95;87.21;100379.38;5052199;28;20110;-63
2021/08/08 03:27:26;;;;;;;12.98;5.50;;;;;;;14.91;87.44;100386.75;5051709;28;20384;-62
2021/08/08 03:29:51;;;;;;;15.05;5.35;;;;;;;14.91;87.25;100383.19;5052014;28;20029;-62
2021/08/08 03:32:16;;;;;;;16.75;5.47;;;;;;;14.90;87.15;100387.69;5052344;28;20468;-62
2021/08/08 03:34:42;;;;;;;12.48;5.28;;;;;;;14.89;87.10;100383.31;5052491;28;20033;-62
2021/08/08 03:37:07;;;;;;;11.32;5.10;;;;;;;14.89;86.55;100377.97;5052189;28;20039;-62
2021/08/08 03:39:32;;;;;;;12.43;4.60;;;;;;;14.94;86.09;100387.50;5051321;28;20032;-70
2021/08/08 03:41:58;;;;;;;14.27;4.70;;;;;;;14.96;85.87;100398.88;5034280;28;20017;-62
2021/08/08 03:44:23;;;;;;;12.40;4.70;;;;;;;14.98;85.75;100394.31;5051828;28;20028;-69
2021/08/08 03:46:49;;;;;;;14.63;5.18;;;;;;;15.02;85.16;100390.47;5052132;28;20063;-70
2021/08/08 03:49:14;;;;;;;11.77;4.93;;;;;;;15.04;85.28;100405.38;5051645;28;20415;-62
2021/08/08 03:51:40;;;;;;;15.80;4.63;;;;;;;15.07;85.16;100407.00;5052045;28;20064;-62
2021/08/08 03:54:06;;;;;;;10.57;4.22;;;;;;;15.13;84.94;100411.03;5052096;28;20033;-61
2021/08/08 03:56:32;;;;;;;13.45;4.57;;;;;;;15.19;84.34;100408.78;5052339;28;20029;-71
2021/08/08 03:58:58;;;;;;;15.40;4.45;;;;;;;15.26;84.44;100413.69;5051640;28;20032;-62
2021/08/08 04:01:23;;;;;;;10.85;4.40;;;;;;;15.34;83.51;100413.97;5051519;28;20033;-62
2021/08/08 04:03:48;;;;;;;12.20;4.40;;;;;;;15.36;83.32;100423.59;5047029;28;20128;-61
2021/08/08 04:06:13;;;;;;;13.75;4.68;;;;;;;15.41;83.32;100425.94;5051904;28;20114;-62
2021/08/08 04:08:39;;;;;;;12.35;4.32;;;;;;;15.43;83.19;100423.97;5052380;28;20062;-71
2021/08/08 04:11:04;;;;;;;14.63;4.07;;;;;;;15.45;83.10;100419.41;5051248;28;20096;-71
2021/08/08 04:13:30;;;;;;;14.35;3.97;;;;;;;15.50;82.86;100427.06;5051917;28;20032;-68
2021/08/08 04:15:55;;;;;;;13.10;3.53;;;;;;;15.55;82.76;100424.94;5051489;28;20104;-62
2021/08/08 04:18:20;;;;;;;15.95;4.20;;;;;;;15.54;83.34;100425.91;5051978;28;20025;-72
2021/08/08 04:20:46;;;;;;;10.73;4.00;;;;;;;15.56;82.98;100431.97;5053436;28;20076;-62
2021/08/08 04:23:11;;;;;;;14.25;4.07;;;;;;;15.57;83.00;100425.66;5055698;28;20033;-62
2021/08/08 04:25:40;;;;;;;14.88;4.38;;;;;;;15.55;83.39;100433.78;5055981;28;20025;-71
2021/08/08 04:28:06;;;;;;;13.38;4.43;;;;;;;15.56;82.87;100431.97;5055819;28;20036;-62
2021/08/08 04:30:33;;;;;;;15.43;3.67;;;;;;;15.61;82.13;100442.31;5055106;28;20100;-63
2021/08/08 04:32:59;;;;;;;15.75;4.07;;;;;;;15.68;81.44;100439.09;5054951;28;20494;-61
2021/08/08 04:35:24;;;;;;;12.45;3.30;;;;;;;15.66;81.94;100446.34;5055464;28;20025;-65
2021/08/08 04:37:50;;;;;;;13.18;3.67;;;;;;;15.65;81.76;100443.78;5055664;28;20028;-67
2021/08/08 04:40:15;;;;;;;18.05;4.18;;;;;;;15.66;81.61;100462.34;5055831;28;20523;-62
2021/08/08 04:42:41;;;;;;;12.43;3.42;;;;;;;15.68;81.03;100449.75;5055156;28;20035;-61
2021/08/08 04:45:07;;;;;;;12.55;3.60;;;;;;;15.66;80.49;100457.00;5055065;28;20043;-61
2021/08/08 04:47:32;;;;;;;11.73;3.20;;;;;;;15.66;80.51;100459.69;5055343;28;20055;-62
2021/08/08 04:49:57;;;;;;;11.00;3.10;;;;;;;15.68;80.58;100463.09;5055726;28;20462;-61
2021/08/08 04:52:23;;;;;;;12.30;3.28;;;;;;;15.78;79.89;100471.31;5054951;28;20514;-69
2021/08/08 04:54:48;;;;;;;13.10;3.58;;;;;;;15.81;79.93;100473.78;5055225;28;20471;-62
2021/08/08 04:57:13;;;;;;;14.43;3.50;;;;;;;15.81;80.42;100471.09;5055381;28;20035;-62
2021/08/08 04:59:39;;;;;;;12.93;3.35;;;;;;;15.80;79.99;100463.19;5055159;28;20094;-63
2021/08/08 05:02:04;;;;;;;16.77;3.80;;;;;;;15.76;80.40;100465.22;5061270;28;20398;-63
2021/08/08 05:04:29;;;;;;;12.05;3.47;;;;;;;15.75;81.32;100460.84;5071844;28;20057;-63
2021/08/08 05:06:55;;;;;;;18.65;4.43;;;;;;;15.77;80.37;100472.25;5054818;28;20021;-62
2021/08/08 05:09:20;;;;;;;14.60;3.22;;;;;;;15.82;80.22;100474.63;5055483;28;20128;-69
2021/08/08 05:11:45;;;;;;;16.92;3.35;;;;;;;15.91;80.22;100481.09;5055152;28;20111;-62
2021/08/08 05:14:11;;;;;;;16.58;3.47;;;;;;;15.92;80.57;100470.34;5054619;28;20400;-66
2021/08/08 05:16:37;;;;;;;12.65;3.47;;;;;;;15.95;80.10;100479.94;5054272;28;20032;-62
2021/08/08 05:19:02;;;;;;;10.35;3.13;;;;;;;15.98;80.52;100485.03;5055339;28;20052;-61
2021/08/08 05:21:28;;;;;;;19.40;4.15;;;;;;;15.93;80.83;100480.03;5054462;28;20087;-63
2021/08/08 05:23:53;;;;;;;11.52;3.78;;;;;;;15.80;83.42;100493.38;5054604;28;20033;-63
2021/08/08 05:26:18;;;;;;;18.25;3.85;;;;;;;15.57;84.40;100495.06;5055073;28;20036;-66
2021/08/08 05:28:44;;;;;;;21.77;4.47;;;;;;;15.44;85.73;100499.56;5054668;28;20111;-62
2021/08/08 05:31:10;;;;;;;18.20;4.00;;;;;;;15.41;85.97;100487.31;5054119;28;20535;-62
2021/08/08 05:33:35;;;;;;;17.05;4.97;;;;;;;15.38;86.42;100498.16;5053848;28;20031;-61
2021/08/08 05:36:00;;;;;;;20.92;4.25;;;;;;;15.39;86.45;100497.22;5054339;28;20421;-61
2021/08/08 05:38:26;;;;;;;20.90;4.50;;;;;;;15.44;86.09;100505.75;5053676;28;20029;-62
2021/08/08 05:40:51;;;;;;;17.75;4.25;;;;;;;15.44;86.66;100496.91;5054625;28;20025;-66
2021/08/08 05:43:18;;;;;;;24.25;5.35;;;;;;;15.44;86.33;100504.91;5053657;28;20056;-65
2021/08/08 05:45:47;;;;;;;17.80;5.43;;;;;;;15.42;86.52;100513.00;5055039;28;20063;-60
2021/08/08 05:48:13;;;;;;;18.15;6.00;;;;;;;15.41;87.43;100508.66;5034469;28;20026;-63
2021/08/08 05:50:38;;;;;;;17.92;5.72;;;;;;;15.31;87.08;100512.91;5034575;28;20079;-65
2021/08/08 05:53:03;;;;;;;16.58;4.88;;;;;;;15.28;86.84;100521.13;5034652;28;20039;-62
2021/08/08 05:55:28;;;;;;;17.17;5.00;;;;;;;15.22;86.82;100517.09;5050536;28;20025;-61
2021/08/08 05:57:54;;;;;;;16.83;4.18;;;;;;;15.24;87.36;100521.34;5054303;28;20115;-61
2021/08/08 06:00:19;;;;;;;18.90;4.47;;;;;;;15.23;87.61;100535.63;5054186;28;20108;-61
2021/08/08 06:02:44;;;;;;;21.92;4.82;;;;;;;15.16;87.99;100530.84;5053677;28;20067;-63
2021/08/08 06:05:10;;;;;;;25.40;5.82;;;;;;;14.98;89.38;100540.97;5052320;28;20128;-68
2021/08/08 06:07:35;;;;;;;32.28;6.88;;;;;;;14.86;89.77;100540.84;5053839;28;20021;-61
2021/08/08 06:10:01;;;;;;;19.67;5.32;;;;;;;14.77;90.44;100553.91;5053324;28;20029;-60
2021/08/08 06:12:27;;;;;;;25.88;6.60;;;;;;;14.72;91.05;100555.09;5053859;28;20025;-73
2021/08/08 06:14:53;;;;;;;19.67;7.22;;;;;;;14.74;91.61;100561.19;5052224;28;20363;-60
2021/08/08 06:17:18;;;;;;;30.50;7.05;;;;;;;14.80;91.44;100567.06;5053458;28;20021;-60
2021/08/08 06:19:43;;;;;;;28.38;7.15;;;;;;;14.80;91.43;100567.91;5053071;28;20036;-67
2021/08/08 06:22:11;;;;;;;29.60;7.18;;;;;;;14.91;91.57;100567.16;5051548;28;20128;-60
2021/08/08 06:24:37;;;;;;;27.02;6.60;;;;;;;15.01;90.62;100575.41;5045963;28;20069;-56
2021/08/08 06:27:02;;;;;;;28.42;7.45;;;;;;;15.08;90.19;100566.03;5052810;28;20048;-60
2021/08/08 06:29:27;;;;;;;29.02;6.80;;;;;;;15.12;89.71;100570.19;5052980;28;20076;-60
2021/08/08 06:31:53;;;;;;;28.55;6.57;;;;;;;15.12;89.44;100567.53;5052802;28;20060;-59
2021/08/08 06:34:18;;;;;;;34.35;7.13;;;;;;;15.15;89.23;100580.63;5053324;28;20028;-59
2021/08/08 06:36:44;;;;;;;30.10;7.15;;;;;;;15.27;89.42;100586.97;5052671;28;20507;-59
2021/08/08 06:39:09;;;;;;;26.95;6.57;;;;;;;15.33;88.29;100583.00;5052274;28;20049;-57
2021/08/08 06:41:34;;;;;;;22.08;6.22;;;;;;;15.46;88.30;100596.34;5053416;28;20021;-59
2021/08/08 06:44:00;;;;;;;31.33;7.10;;;;;;;15.64;87.98;100597.75;5052176;28;20028;-58
2021/08/08 06:46:25;;;;;;;28.08;6.18;;;;;;;15.96;87.17;100597.31;5052284;28;20025;-60
2021/08/08 06:48:51;;;;;;;22.08;5.60;;;;;;;16.22;85.38;100611.47;5053133;28;20017;-59
2021/08/08 06:51:16;;;;;;;27.80;6.60;;;;;;;16.08;84.90;100597.41;5053064;28;20040;-59
2021/08/08 06:53:42;;;;;;;20.95;4.95;;;;;;;15.96;84.37;100612.47;5052893;28;20017;-59
2021/08/08 06:56:07;;;;;;;26.67;5.70;;;;;;;15.87;85.28;100617.53;5053250;28;20037;-60
2021/08/08 06:58:32;;;;;;;28.65;5.57;;;;;;;15.91;84.64;100614.63;5052794;28;20088;-58
2021/08/08 07:00:58;;;;;;;20.05;5.10;;;;;;;16.03;84.18;100614.59;5052856;28;20360;-58
2021/08/08 07:03:23;;;;;;;20.73;4.72;;;;;;;16.13;83.97;100609.47;5050770;28;20036;-60
2021/08/08 07:05:48;;;;;;;20.42;5.07;;;;;;;16.10;83.47;100627.50;5047772;28;20017;-60
2021/08/08 07:08:14;;;;;;;24.45;4.93;;;;;;;16.00;82.70;100638.03;5049696;28;20032;-61
2021/08/08 07:10:39;;;;;;;22.90;5.13;;;;;;;15.91;82.92;100630.63;5052333;28;20510;-57
2021/08/08 07:13:04;;;;;;;22.60;5.68;;;;;;;15.85;82.42;100631.94;5053018;28;20025;-59
2021/08/08 07:15:30;;;;;;;26.45;4.85;;;;;;;15.82;82.48;100640.16;5052848;28;20025;-57
2021/08/08 07:17:55;;;;;;;20.10;5.07;;;;;;;16.00;82.19;100636.19;5052830;28;20532;-60
2021/08/08 07:20:21;;;;;;;23.23;5.03;;;;;;;16.15;81.23;100642.28;5052438;28;20597;-62
2021/08/08 07:22:46;;;;;;;18.70;4.97;;;;;;;16.20;79.77;100641.91;5053288;28;20115;-61
2021/08/08 07:25:11;;;;;;;22.00;5.25;;;;;;;16.09;81.02;100642.69;5050889;28;20096;-58
2021/08/08 07:27:38;;;;;;;22.83;5.78;;;;;;;16.23;81.08;100649.72;5042934;28;20100;-59
2021/08/08 07:30:04;;;;;;;18.20;5.05;;;;;;;16.61;78.93;100645.22;5048264;28;20042;-60
2021/08/08 07:32:29;;;;;;;22.23;5.40;;;;;;;16.68;78.78;100647.34;5048298;28;20431;-57
2021/08/08 07:34:54;;;;;;;24.73;5.53;;;;;;;16.59;78.08;100655.19;5048420;28;20108;-61
2021/08/08 07:37:21;;;;;;;19.48;5.32;;;;;;;16.49;77.51;100652.34;5048059;28;20033;-59
2021/08/08 07:39:47;;;;;;;17.40;5.60;;;;;;;16.63;79.67;100643.31;5038100;28;20065;-60
2021/08/08 07:42:12;;;;;;;22.35;5.35;;;;;;;16.72;77.38;100658.66;5028829;28;20068;-60
2021/08/08 07:44:37;;;;;;;20.63;5.47;;;;;;;16.61;76.87;100662.13;5045529;28;20025;-59
2021/08/08 07:47:03;;;;;;;19.08;5.90;;;;;;;16.50;78.33;100673.59;5047850;28;20370;-60
2021/08/08 07:49:28;;;;;;;25.75;6.55;;;;;;;16.45;78.67;100673.09;5048138;28;20087;-59
2021/08/08 07:51:53;;;;;;;20.15;6.90;;;;;;;16.37;80.47;100672.78;5048235;28;20396;-60
2021/08/08 07:54:20;;;;;;;22.67;7.28;;;;;;;16.22;79.88;100670.22;5048004;28;20029;-59
2021/08/08 07:56:46;;;;;;;18.80;6.65;;;;;;;16.09;79.94;100668.53;5048378;28;20347;-61
2021/08/08 07:59:11;;;;;;;18.25;6.05;;;;;;;16.22;79.59;100685.44;5047935;28;20040;-60
2021/08/08 08:01:38;;;;;;;21.60;6.60;;;;;;;16.44;76.14;100670.53;5048024;28;20102;-59
2021/08/08 08:04:04;;;;;;;18.67;5.85;;;;;;;16.67;77.03;100676.88;5047690;28;20535;-59
2021/08/08 08:06:29;;;;;;;16.15;5.82;;;;;;;16.85;75.86;100683.56;5048183;28;20168;-59
2021/08/08 08:08:55;;;;;;;18.10;6.20;;;;;;;17.16;75.28;100680.41;5047553;28;20432;-60
2021/08/08 08:11:20;;;;;;;20.55;6.50;;;;;;;17.40;75.01;100684.91;5047025;28;20045;-59
2021/08/08 08:13:45;;;;;;;16.08;5.75;;;;;;;17.36;73.88;100693.13;5047624;28;20044;-60
2021/08/08 08:16:11;;;;;;;14.90;5.75;;;;;;;17.25;74.72;100695.81;5047263;28;20025;-59
2021/08/08 08:18:36;;;;;;;17.90;5.20;;;;;;;17.19;72.51;100686.41;5047487;28;20064;-60
2021/08/08 08:21:01;;;;;;;21.55;5.90;;;;;;;17.09;73.92;100701.44;5042068;28;20108;-60
2021/08/08 08:23:27;;;;;;;14.90;5.07;;;;;;;17.16;75.03;100702.69;5043574;28;20124;-60
2021/08/08 08:25:52;;;;;;;15.32;5.00;;;;;;;17.39;72.29;100708.13;5047911;28;20108;-60
2021/08/08 08:28:18;;;;;;;17.10;4.65;;;;;;;17.39;72.44;100709.94;5047885;28;20132;-61
2021/08/08 08:30:43;;;;;;;18.88;5.05;;;;;;;17.43;72.78;100706.06;5047111;28;20138;-59
2021/08/08 08:33:09;;;;;;;16.55;5.00;;;;;;;17.24;73.18;100710.16;5041831;28;20399;-59
2021/08/08 08:35:34;;;;;;;17.23;4.88;;;;;;;17.15;72.55;100700.97;5043830;28;20039;-60
2021/08/08 08:38:00;;;;;;;15.75;5.00;;;;;;;17.03;72.43;100701.88;5042766;28;20033;-58
2021/08/08 08:40:26;;;;;;;18.75;4.90;;;;;;;17.16;72.97;100726.78;5047596;28;20037;-60
2021/08/08 08:42:56;;;;;;;17.48;5.38;;;;;;;17.16;74.10;100708.03;5047661;28;20068;-62
2021/08/08 08:45:21;;;;;;;15.40;4.75;;;;;;;17.12;73.47;100713.72;5047280;28;20065;-61
2021/08/08 08:47:47;;;;;;;16.42;4.68;;;;;;;17.17;72.71;100715.09;5046861;28;20132;-61
2021/08/08 08:50:13;;;;;;;20.10;4.43;;;;;;;17.15;71.88;100709.00;5047779;28;20029;-59
2021/08/08 08:52:39;;;;;;;14.85;4.30;;;;;;;17.14;72.60;100720.66;5047552;28;20082;-61
2021/08/08 08:55:05;;;;;;;17.10;4.32;;;;;;;17.29;71.10;100723.16;5047041;28;20110;-64
2021/08/08 08:57:32;;;;;;;18.20;4.53;;;;;;;17.53;69.40;100707.94;5047458;28;20048;-59
2021/08/08 08:59:58;;;;;;;18.42;4.38;;;;;;;17.74;69.13;100727.84;5047662;28;20379;-59
2021/08/08 09:02:23;;;;;;;16.58;4.53;;;;;;;18.08;67.81;100726.09;5046385;28;20059;-59
2021/08/08 09:04:49;;;;;;;16.17;5.00;;;;;;;18.26;67.18;100734.50;5047205;28;20077;-60
2021/08/08 09:07:15;;;;;;;16.30;4.35;;;;;;;18.39;66.85;100730.84;5048509;28;20116;-60
2021/08/08 09:09:40;;;;;;;16.83;4.50;;;;;;;18.89;65.10;100733.09;5050870;28;20443;-60
2021/08/08 09:12:06;;;;;;;15.52;3.78;;;;;;;19.53;63.29;100740.34;5050347;28;20048;-60
2021/08/08 09:14:33;;;;;;;17.55;4.18;;;;;;;19.59;62.27;100736.28;5051095;28;20020;-59
2021/08/08 09:16:58;;;;;;;19.45;4.20;;;;;;;19.74;61.55;100737.66;5050322;28;20120;-59
2021/08/08 09:19:24;;;;;;;12.38;3.58;;;;;;;20.39;60.00;100744.72;5051298;28;20115;-60
2021/08/08 09:21:50;;;;;;;14.97;4.17;;;;;;;21.24;56.50;100735.31;5051220;28;20099;-60
2021/08/08 09:24:28;;;;;;;14.10;4.10;;;;;;;21.57;54.81;100735.91;5050438;28;20379;-60
2021/08/08 09:27:03;;;;;;;18.75;4.00;;;;;;;20.51;57.65;100746.31;5050191;28;20032;-60
2021/08/08 09:29:29;;;;;;;14.30;3.55;;;;;;;19.65;60.05;100749.19;5051376;28;20067;-57
2021/08/08 09:31:55;;;;;;;16.27;3.55;;;;;;;19.16;61.41;100759.53;5049808;28;20065;-59
2021/08/08 09:34:30;;;;;;;14.15;4.47;;;;;;;18.86;61.88;100744.91;5050867;28;20044;-60
2021/08/08 09:37:00;;;;;;;19.08;4.80;;;;;;;18.60;63.98;100773.88;5051077;28;20021;-60
2021/08/08 09:39:36;;;;;;;16.63;3.63;;;;;;;18.60;63.45;100784.59;5049163;28;20098;-60
2021/08/08 09:42:16;;;;;;;11.85;3.40;;;;;;;18.43;62.60;100781.41;5050501;28;20047;-60
2021/08/08 09:44:57;;;;;;;16.30;3.88;;;;;;;18.67;62.31;100772.41;5050726;28;20075;-58
2021/08/08 09:47:35;;;;;;;12.57;3.20;;;;;;;18.98;62.11;100783.38;5050121;28;20065;-59
2021/08/08 09:50:04;;;;;;;16.67;3.72;;;;;;;18.99;61.91;100783.25;5036728;28;20495;-59
2021/08/08 09:52:31;;;;;;;15.07;3.55;;;;;;;19.26;61.31;100775.72;5050234;28;20048;-58
2021/08/08 09:54:57;;;;;;;13.55;3.35;;;;;;;19.34;61.54;100788.53;5049797;28;20467;-60
2021/08/08 09:57:22;;;;;;;12.98;3.00;;;;;;;19.16;60.84;100783.69;5050804;28;20033;-60
2021/08/08 09:59:51;;;;;;;17.45;4.05;;;;;;;19.33;60.55;100795.72;5049722;28;20048;-60
2021/08/08 10:02:19;;;;;;;16.83;3.88;;;;;;;19.53;60.17;100777.06;5049942;28;20076;-59
2021/08/08 10:04:45;;;;;;;13.70;3.55;;;;;;;19.79;58.88;100788.31;5050054;28;20451;-60
2021/08/08 10:07:12;;;;;;;11.93;3.58;;;;;;;19.65;59.96;100795.72;5050146;28;20029;-60
2021/08/08 10:09:38;;;;;;;14.82;3.53;;;;;;;19.21;60.91;100792.22;5049002;28;20040;-61
2021/08/08 10:12:17;;;;;;;11.27;3.50;;;;;;;19.35;61.75;100796.44;5031381;28;20425;-60
2021/08/08 10:14:43;;;;;;;10.25;3.38;;;;;;;20.50;57.17;100784.97;5049549;28;20029;-59
2021/08/08 10:17:11;;;;;;;10.95;3.00;;;;;;;20.83;54.45;100801.84;5049324;28;20025;-59
2021/08/08 10:19:37;;;;;;;13.32;3.15;;;;;;;20.69;53.31;100775.25;5049934;28;20451;-59
2021/08/08 10:22:03;;;;;;;14.35;3.13;;;;;;;21.32;52.21;100788.47;5049867;28;20063;-60
2021/08/08 10:24:30;;;;;;;12.75;3.00;;;;;;;21.89;51.26;100790.47;5049253;28;20086;-58
2021/08/08 10:26:55;;;;;;;13.60;3.65;;;;;;;22.26;50.42;100803.16;5050125;28;20463;-60
2021/08/08 10:29:21;;;;;;;9.18;2.75;;;;;;;22.35;48.66;100802.28;5049647;28;20103;-59
2021/08/08 10:31:49;;;;;;;10.30;3.13;;;;;;;22.07;49.71;100810.31;5049577;28;20110;-60
2021/08/08 10:34:14;;;;;;;13.07;3.63;;;;;;;21.69;50.25;100812.06;5049993;28;20031;-60
2021/08/08 10:36:40;;;;;;;11.75;3.22;;;;;;;22.03;49.62;100805.34;5049576;28;20079;-58
2021/08/08 10:39:07;;;;;;;11.20;3.30;;;;;;;22.29;49.65;100818.19;5048529;28;20029;-59
2021/08/08 10:41:33;;;;;;;11.02;3.35;;;;;;;21.81;51.52;100812.75;5049708;28;20021;-59
2021/08/08 10:44:17;;;;;;;10.93;3.50;;;;;;;21.24;52.75;100826.00;5049182;28;20033;-59
2021/08/08 10:46:51;;;;;;;12.50;3.10;;;;;;;20.69;54.81;100804.84;5048756;28;20532;-60
2021/08/08 10:49:31;;;;;;;9.35;3.13;;;;;;;20.72;53.37;100813.53;5045900;28;20029;-60
2021/08/08 10:52:01;;;;;;;11.27;3.25;;;;;;;20.62;54.42;100818.00;5049109;28;20100;-60
2021/08/08 10:54:26;;;;;;;14.40;3.28;;;;;;;21.06;53.19;100810.53;5048672;28;20381;-60
2021/08/08 10:56:52;;;;;;;8.63;2.92;;;;;;;21.64;51.83;100817.03;5048988;28;20037;-60
2021/08/08 10:59:22;;;;;;;6.80;2.97;;;;;;;22.02;50.44;100801.81;5048971;28;20029;-58
2021/08/08 11:02:07;;;;;;;10.75;2.88;;;;;;;22.03;49.18;100825.06;5048668;28;20040;-60
2021/08/08 11:04:33;;;;;;;10.88;2.90;;;;;;;21.74;51.08;100815.16;5049344;28;20037;-60
2021/08/08 11:06:59;;;;;;;10.32;3.25;;;;;;;21.38;51.58;100822.94;5047495;28;20174;-60
2021/08/08 11:09:25;;;;;;;9.52;3.03;;;;;;;20.96;53.23;100812.34;5049327;28;20021;-61
2021/08/08 11:11:56;;;;;;;8.90;3.25;;;;;;;20.63;53.08;100827.78;5046799;28;20036;-60